sensor_id;sensor_type;location;lat;lon;timestamp;temperature;humidity
11497;DHT22;5805;51.542;7.230;2023-04-25T00:02:11;9.70;99.90
11497;DHT22;5805;51.542;7.230;2023-04-25T00:04:38;9.80;99.90
11497;DHT22;5805;51.542;7.230;2023-04-25T00:07:03;9.80;99.90
11497;DHT22;5805;51.542;7.230;2023-04-25T00:09:29;9.80;99.90
11497;DHT22;5805;51.542;7.230;2023-04-25T00:11:55;9.80;99.90
11497;DHT22;5805;51.542;7.230;2023-04-25T00:14:21;10.00;99.90
11497;DHT22;5805;51.542;7.230;2023-04-25T00:16:47;9.90;99.90
11497;DHT22;5805;51.542;7.230;2023-04-25T00:19:12;9.90;99.90
11497;DHT22;5805;51.542;7.230;2023-04-25T00:21:39;9.90;99.90
11497;DHT22;5805;51.542;7.230;2023-04-25T00:24:06;9.90;99.90
11497;DHT22;5805;51.542;7.230;2023-04-25T00:26:33;10.00;99.90
11497;DHT22;5805;51.542;7.230;2023-04-25T00:28:59;10.00;99.90
11497;DHT22;5805;51.542;7.230;2023-04-25T00:31:25;10.00;99.90
11497;DHT22;5805;51.542;7.230;2023-04-25T00:33:51;9.90;99.90
11497;DHT22;5805;51.542;7.230;2023-04-25T00:36:16;9.90;99.90
11497;DHT22;5805;51.542;7.230;2023-04-25T00:38:44;9.90;99.90
11497;DHT22;5805;51.542;7.230;2023-04-25T00:41:09;10.00;99.90
11497;DHT22;5805;51.542;7.230;2023-04-25T00:43:36;10.00;99.90
11497;DHT22;5805;51.542;7.230;2023-04-25T00:46:02;10.10;99.90
11497;DHT22;5805;51.542;7.230;2023-04-25T00:48:28;10.00;99.90
11497;DHT22;5805;51.542;7.230;2023-04-25T00:50:55;10.00;99.90
11497;DHT22;5805;51.542;7.230;2023-04-25T00:53:22;10.00;99.90
11497;DHT22;5805;51.542;7.230;2023-04-25T00:55:49;10.00;99.90
11497;DHT22;5805;51.542;7.230;2023-04-25T00:58:15;10.40;99.90
11497;DHT22;5805;51.542;7.230;2023-04-25T01:00:42;10.10;99.90
11497;DHT22;5805;51.542;7.230;2023-04-25T01:03:07;10.10;99.90
11497;DHT22;5805;51.542;7.230;2023-04-25T01:05:33;10.10;99.90
11497;DHT22;5805;51.542;7.230;2023-04-25T01:07:59;10.00;99.90
11497;DHT22;5805;51.542;7.230;2023-04-25T01:10:25;10.50;99.90
11497;DHT22;5805;51.542;7.230;2023-04-25T01:12:52;10.00;99.90
11497;DHT22;5805;51.542;7.230;2023-04-25T01:15:18;10.40;99.90
11497;DHT22;5805;51.542;7.230;2023-04-25T01:17:44;10.00;99.90
11497;DHT22;5805;51.542;7.230;2023-04-25T01:20:11;10.00;99.90
11497;DHT22;5805;51.542;7.230;2023-04-25T01:22:38;10.00;99.90
11497;DHT22;5805;51.542;7.230;2023-04-25T01:25:05;9.90;99.90
11497;DHT22;5805;51.542;7.230;2023-04-25T01:27:31;10.00;99.90
11497;DHT22;5805;51.542;7.230;2023-04-25T01:29:57;9.90;99.90
11497;DHT22;5805;51.542;7.230;2023-04-25T01:32:23;9.90;99.90
11497;DHT22;5805;51.542;7.230;2023-04-25T01:34:49;9.90;99.90
11497;DHT22;5805;51.542;7.230;2023-04-25T01:37:14;10.00;99.90
11497;DHT22;5805;51.542;7.230;2023-04-25T01:39:43;10.00;99.90
11497;DHT22;5805;51.542;7.230;2023-04-25T01:42:08;10.00;99.90
11497;DHT22;5805;51.542;7.230;2023-04-25T01:44:34;10.00;99.90
11497;DHT22;5805;51.542;7.230;2023-04-25T01:47:00;10.00;99.90
11497;DHT22;5805;51.542;7.230;2023-04-25T01:49:26;10.10;99.90
11497;DHT22;5805;51.542;7.230;2023-04-25T01:51:51;10.10;99.90
11497;DHT22;5805;51.542;7.230;2023-04-25T01:54:18;10.10;99.90
11497;DHT22;5805;51.542;7.230;2023-04-25T01:56:50;10.10;99.90
11497;DHT22;5805;51.542;7.230;2023-04-25T01:59:15;10.10;99.90
11497;DHT22;5805;51.542;7.230;2023-04-25T02:01:41;10.10;99.90
11497;DHT22;5805;51.542;7.230;2023-04-25T02:04:07;10.10;99.90
11497;DHT22;5805;51.542;7.230;2023-04-25T02:06:32;10.10;99.90
11497;DHT22;5805;51.542;7.230;2023-04-25T02:08:58;10.00;99.90
11497;DHT22;5805;51.542;7.230;2023-04-25T02:11:24;10.20;99.90
11497;DHT22;5805;51.542;7.230;2023-04-25T02:13:51;10.50;99.90
11497;DHT22;5805;51.542;7.230;2023-04-25T02:16:16;9.90;99.90
11497;DHT22;5805;51.542;7.230;2023-04-25T02:18:42;9.90;99.90
11497;DHT22;5805;51.542;7.230;2023-04-25T02:21:08;9.90;99.90
11497;DHT22;5805;51.542;7.230;2023-04-25T02:23:34;10.00;99.90
11497;DHT22;5805;51.542;7.230;2023-04-25T02:25:59;10.00;99.90
11497;DHT22;5805;51.542;7.230;2023-04-25T02:28:25;10.00;99.90
11497;DHT22;5805;51.542;7.230;2023-04-25T02:30:52;10.00;99.90
11497;DHT22;5805;51.542;7.230;2023-04-25T02:33:18;10.00;99.90
11497;DHT22;5805;51.542;7.230;2023-04-25T02:35:44;10.00;99.90
11497;DHT22;5805;51.542;7.230;2023-04-25T02:38:09;10.00;99.90
11497;DHT22;5805;51.542;7.230;2023-04-25T02:40:35;10.00;99.90
11497;DHT22;5805;51.542;7.230;2023-04-25T02:43:01;10.00;99.90
11497;DHT22;5805;51.542;7.230;2023-04-25T02:45:26;9.90;99.90
11497;DHT22;5805;51.542;7.230;2023-04-25T02:47:53;9.90;99.90
11497;DHT22;5805;51.542;7.230;2023-04-25T02:50:19;9.90;99.90
11497;DHT22;5805;51.542;7.230;2023-04-25T02:52:45;9.90;99.90
11497;DHT22;5805;51.542;7.230;2023-04-25T02:55:11;9.90;99.90
11497;DHT22;5805;51.542;7.230;2023-04-25T02:57:37;9.90;99.90
11497;DHT22;5805;51.542;7.230;2023-04-25T03:00:04;9.90;99.90
11497;DHT22;5805;51.542;7.230;2023-04-25T03:02:30;9.80;99.90
11497;DHT22;5805;51.542;7.230;2023-04-25T03:04:57;9.80;99.90
11497;DHT22;5805;51.542;7.230;2023-04-25T03:07:22;9.80;99.90
11497;DHT22;5805;51.542;7.230;2023-04-25T03:09:48;9.90;99.90
11497;DHT22;5805;51.542;7.230;2023-04-25T03:12:14;9.90;99.90
11497;DHT22;5805;51.542;7.230;2023-04-25T03:14:39;9.80;99.90
11497;DHT22;5805;51.542;7.230;2023-04-25T03:17:05;9.80;99.90
11497;DHT22;5805;51.542;7.230;2023-04-25T03:19:31;9.80;99.90
11497;DHT22;5805;51.542;7.230;2023-04-25T03:21:58;9.80;99.90
11497;DHT22;5805;51.542;7.230;2023-04-25T03:24:23;9.80;99.90
11497;DHT22;5805;51.542;7.230;2023-04-25T03:26:49;9.80;99.90
11497;DHT22;5805;51.542;7.230;2023-04-25T03:29:15;9.80;99.90
11497;DHT22;5805;51.542;7.230;2023-04-25T03:31:40;9.80;99.90
11497;DHT22;5805;51.542;7.230;2023-04-25T03:34:06;9.80;99.90
11497;DHT22;5805;51.542;7.230;2023-04-25T03:36:32;9.80;99.90
11497;DHT22;5805;51.542;7.230;2023-04-25T03:38:59;10.00;99.90
11497;DHT22;5805;51.542;7.230;2023-04-25T03:41:25;9.90;99.90
11497;DHT22;5805;51.542;7.230;2023-04-25T03:43:50;9.90;99.90
11497;DHT22;5805;51.542;7.230;2023-04-25T03:46:16;9.90;99.90
11497;DHT22;5805;51.542;7.230;2023-04-25T03:48:42;9.90;99.90
11497;DHT22;5805;51.542;7.230;2023-04-25T03:51:07;9.90;99.90
11497;DHT22;5805;51.542;7.230;2023-04-25T03:53:33;9.80;99.90
11497;DHT22;5805;51.542;7.230;2023-04-25T03:56:00;9.80;99.90
11497;DHT22;5805;51.542;7.230;2023-04-25T03:58:26;9.70;99.90
11497;DHT22;5805;51.542;7.230;2023-04-25T04:00:51;9.60;99.90
11497;DHT22;5805;51.542;7.230;2023-04-25T04:03:17;9.50;99.90
11497;DHT22;5805;51.542;7.230;2023-04-25T04:05:43;9.40;99.90
11497;DHT22;5805;51.542;7.230;2023-04-25T04:08:08;9.30;99.90
11497;DHT22;5805;51.542;7.230;2023-04-25T04:10:34;9.20;99.90
11497;DHT22;5805;51.542;7.230;2023-04-25T04:13:01;9.20;99.90
11497;DHT22;5805;51.542;7.230;2023-04-25T04:15:27;9.20;99.90
11497;DHT22;5805;51.542;7.230;2023-04-25T04:17:53;9.70;99.90
11497;DHT22;5805;51.542;7.230;2023-04-25T04:20:18;9.20;99.90
11497;DHT22;5805;51.542;7.230;2023-04-25T04:22:44;9.20;99.90
11497;DHT22;5805;51.542;7.230;2023-04-25T04:25:10;9.20;99.90
11497;DHT22;5805;51.542;7.230;2023-04-25T04:27:35;9.10;99.90
11497;DHT22;5805;51.542;7.230;2023-04-25T04:30:03;9.10;99.90
11497;DHT22;5805;51.542;7.230;2023-04-25T04:32:29;9.20;99.90
11497;DHT22;5805;51.542;7.230;2023-04-25T04:34:54;9.20;99.90
11497;DHT22;5805;51.542;7.230;2023-04-25T04:37:20;9.10;99.90
11497;DHT22;5805;51.542;7.230;2023-04-25T04:39:46;9.10;99.90
11497;DHT22;5805;51.542;7.230;2023-04-25T04:42:11;9.10;99.90
11497;DHT22;5805;51.542;7.230;2023-04-25T04:44:37;9.10;99.90
11497;DHT22;5805;51.542;7.230;2023-04-25T04:47:05;9.20;99.90
11497;DHT22;5805;51.542;7.230;2023-04-25T04:49:30;9.20;99.90
11497;DHT22;5805;51.542;7.230;2023-04-25T04:51:56;9.30;99.90
11497;DHT22;5805;51.542;7.230;2023-04-25T04:54:22;9.70;99.90
11497;DHT22;5805;51.542;7.230;2023-04-25T04:56:47;9.70;99.90
11497;DHT22;5805;51.542;7.230;2023-04-25T04:59:13;9.40;99.90
11497;DHT22;5805;51.542;7.230;2023-04-25T05:01:39;9.40;99.90
11497;DHT22;5805;51.542;7.230;2023-04-25T05:04:06;9.50;99.90
11497;DHT22;5805;51.542;7.230;2023-04-25T05:06:31;9.60;99.90
11497;DHT22;5805;51.542;7.230;2023-04-25T05:08:57;9.60;99.90
11497;DHT22;5805;51.542;7.230;2023-04-25T05:11:24;9.60;99.90
11497;DHT22;5805;51.542;7.230;2023-04-25T05:13:51;9.70;99.90
11497;DHT22;5805;51.542;7.230;2023-04-25T05:16:17;9.80;99.90
11497;DHT22;5805;51.542;7.230;2023-04-25T05:18:42;9.90;99.90
11497;DHT22;5805;51.542;7.230;2023-04-25T05:21:09;9.90;99.90
11497;DHT22;5805;51.542;7.230;2023-04-25T05:23:35;10.10;99.90
11497;DHT22;5805;51.542;7.230;2023-04-25T05:26:01;10.10;99.90
11497;DHT22;5805;51.542;7.230;2023-04-25T05:28:27;10.20;99.90
11497;DHT22;5805;51.542;7.230;2023-04-25T05:30:52;10.30;99.90
11497;DHT22;5805;51.542;7.230;2023-04-25T05:33:18;10.30;99.90
11497;DHT22;5805;51.542;7.230;2023-04-25T05:35:44;10.40;99.90
11497;DHT22;5805;51.542;7.230;2023-04-25T05:38:11;10.50;99.90
11497;DHT22;5805;51.542;7.230;2023-04-25T05:40:37;10.60;99.90
11497;DHT22;5805;51.542;7.230;2023-04-25T05:43:02;10.70;99.90
11497;DHT22;5805;51.542;7.230;2023-04-25T05:45:28;10.70;99.90
11497;DHT22;5805;51.542;7.230;2023-04-25T05:47:54;11.00;99.90
11497;DHT22;5805;51.542;7.230;2023-04-25T05:50:20;10.80;99.90
11497;DHT22;5805;51.542;7.230;2023-04-25T05:52:45;10.90;99.90
11497;DHT22;5805;51.542;7.230;2023-04-25T05:55:12;11.00;99.90
11497;DHT22;5805;51.542;7.230;2023-04-25T05:57:38;11.10;99.90
11497;DHT22;5805;51.542;7.230;2023-04-25T06:00:05;11.20;99.90
11497;DHT22;5805;51.542;7.230;2023-04-25T06:02:31;11.40;99.90
11497;DHT22;5805;51.542;7.230;2023-04-25T06:04:56;11.50;99.90
11497;DHT22;5805;51.542;7.230;2023-04-25T06:07:22;11.60;99.90
11497;DHT22;5805;51.542;7.230;2023-04-25T06:09:48;11.80;99.90
11497;DHT22;5805;51.542;7.230;2023-04-25T06:12:15;11.90;99.90
11497;DHT22;5805;51.542;7.230;2023-04-25T06:14:41;12.00;99.90
11497;DHT22;5805;51.542;7.230;2023-04-25T06:17:06;12.00;99.90
11497;DHT22;5805;51.542;7.230;2023-04-25T06:19:32;12.00;99.90
11497;DHT22;5805;51.542;7.230;2023-04-25T06:21:58;11.90;99.90
11497;DHT22;5805;51.542;7.230;2023-04-25T06:24:24;11.80;99.90
11497;DHT22;5805;51.542;7.230;2023-04-25T06:26:49;11.80;99.90
11497;DHT22;5805;51.542;7.230;2023-04-25T06:29:16;11.70;99.90
11497;DHT22;5805;51.542;7.230;2023-04-25T06:31:42;11.70;99.90
11497;DHT22;5805;51.542;7.230;2023-04-25T06:34:08;11.80;99.90
11497;DHT22;5805;51.542;7.230;2023-04-25T06:36:34;12.30;99.90
11497;DHT22;5805;51.542;7.230;2023-04-25T06:38:59;12.80;99.90
11497;DHT22;5805;51.542;7.230;2023-04-25T06:41:25;13.00;99.90
11497;DHT22;5805;51.542;7.230;2023-04-25T06:43:51;12.90;99.90
11497;DHT22;5805;51.542;7.230;2023-04-25T06:46:18;12.90;99.90
11497;DHT22;5805;51.542;7.230;2023-04-25T06:48:44;12.80;99.90
11497;DHT22;5805;51.542;7.230;2023-04-25T06:51:09;13.00;99.90
11497;DHT22;5805;51.542;7.230;2023-04-25T06:53:35;13.30;99.90
11497;DHT22;5805;51.542;7.230;2023-04-25T06:56:01;13.60;99.90
11497;DHT22;5805;51.542;7.230;2023-04-25T06:58:26;13.40;99.90
11497;DHT22;5805;51.542;7.230;2023-04-25T07:00:52;13.50;99.90
11497;DHT22;5805;51.542;7.230;2023-04-25T07:03:19;13.40;99.90
11497;DHT22;5805;51.542;7.230;2023-04-25T07:05:45;13.30;99.90
11497;DHT22;5805;51.542;7.230;2023-04-25T07:08:11;13.20;99.90
11497;DHT22;5805;51.542;7.230;2023-04-25T07:10:37;13.20;99.90
11497;DHT22;5805;51.542;7.230;2023-04-25T07:13:03;13.50;99.90
11497;DHT22;5805;51.542;7.230;2023-04-25T07:15:28;13.10;99.90
11497;DHT22;5805;51.542;7.230;2023-04-25T07:17:54;13.30;99.90
11497;DHT22;5805;51.542;7.230;2023-04-25T07:20:21;13.50;99.90
11497;DHT22;5805;51.542;7.230;2023-04-25T07:22:47;13.70;99.90
11497;DHT22;5805;51.542;7.230;2023-04-25T07:25:13;13.80;99.90
11497;DHT22;5805;51.542;7.230;2023-04-25T07:27:38;13.80;99.90
11497;DHT22;5805;51.542;7.230;2023-04-25T07:30:05;14.00;99.90
11497;DHT22;5805;51.542;7.230;2023-04-25T07:32:31;14.10;99.90
11497;DHT22;5805;51.542;7.230;2023-04-25T07:34:57;14.20;99.90
11497;DHT22;5805;51.542;7.230;2023-04-25T07:37:24;14.20;99.90
11497;DHT22;5805;51.542;7.230;2023-04-25T07:39:50;14.10;99.70
11497;DHT22;5805;51.542;7.230;2023-04-25T07:42:15;14.20;99.80
11497;DHT22;5805;51.542;7.230;2023-04-25T07:44:41;14.30;99.70
11497;DHT22;5805;51.542;7.230;2023-04-25T07:47:07;14.50;99.00
11497;DHT22;5805;51.542;7.230;2023-04-25T07:49:33;14.70;98.60
11497;DHT22;5805;51.542;7.230;2023-04-25T07:51:59;14.80;96.80
11497;DHT22;5805;51.542;7.230;2023-04-25T07:54:26;15.10;96.40
11497;DHT22;5805;51.542;7.230;2023-04-25T07:56:52;15.40;93.80
11497;DHT22;5805;51.542;7.230;2023-04-25T07:59:18;15.60;93.40
11497;DHT22;5805;51.542;7.230;2023-04-25T08:01:44;15.60;92.00
11497;DHT22;5805;51.542;7.230;2023-04-25T08:04:09;15.70;92.40
11497;DHT22;5805;51.542;7.230;2023-04-25T08:06:35;15.90;90.60
11497;DHT22;5805;51.542;7.230;2023-04-25T08:09:01;16.00;88.80
11497;DHT22;5805;51.542;7.230;2023-04-25T08:11:28;15.90;87.60
11497;DHT22;5805;51.542;7.230;2023-04-25T08:13:53;16.10;85.00
11497;DHT22;5805;51.542;7.230;2023-04-25T08:16:19;16.20;84.80
11497;DHT22;5805;51.542;7.230;2023-04-25T08:18:45;16.40;79.80
11497;DHT22;5805;51.542;7.230;2023-04-25T08:21:11;16.60;77.80
11497;DHT22;5805;51.542;7.230;2023-04-25T08:23:36;16.70;75.30
11497;DHT22;5805;51.542;7.230;2023-04-25T08:26:02;16.70;72.60
11497;DHT22;5805;51.542;7.230;2023-04-25T08:28:29;16.60;71.20
11497;DHT22;5805;51.542;7.230;2023-04-25T08:30:55;16.40;71.40
11497;DHT22;5805;51.542;7.230;2023-04-25T08:33:21;16.50;72.20
11497;DHT22;5805;51.542;7.230;2023-04-25T08:35:46;16.40;73.20
11497;DHT22;5805;51.542;7.230;2023-04-25T08:38:12;16.40;71.40
11497;DHT22;5805;51.542;7.230;2023-04-25T08:40:39;16.30;72.30
11497;DHT22;5805;51.542;7.230;2023-04-25T08:43:06;16.50;71.70
11497;DHT22;5805;51.542;7.230;2023-04-25T08:45:33;16.60;69.70
11497;DHT22;5805;51.542;7.230;2023-04-25T08:48:01;16.60;69.50
11497;DHT22;5805;51.542;7.230;2023-04-25T08:50:27;16.70;67.80
11497;DHT22;5805;51.542;7.230;2023-04-25T08:52:54;16.50;67.90
11497;DHT22;5805;51.542;7.230;2023-04-25T08:55:20;16.50;66.50
11497;DHT22;5805;51.542;7.230;2023-04-25T08:57:46;16.60;65.50
11497;DHT22;5805;51.542;7.230;2023-04-25T09:00:13;16.80;63.70
11497;DHT22;5805;51.542;7.230;2023-04-25T09:02:42;16.90;65.00
11497;DHT22;5805;51.542;7.230;2023-04-25T09:05:09;17.10;65.10
11497;DHT22;5805;51.542;7.230;2023-04-25T09:07:35;17.10;63.40
11497;DHT22;5805;51.542;7.230;2023-04-25T09:10:00;17.20;61.90
11497;DHT22;5805;51.542;7.230;2023-04-25T09:12:27;17.40;62.00
11497;DHT22;5805;51.542;7.230;2023-04-25T09:15:08;17.80;60.30
11497;DHT22;5805;51.542;7.230;2023-04-25T09:17:34;17.90;57.60
11497;DHT22;5805;51.542;7.230;2023-04-25T09:20:09;17.70;55.10
11497;DHT22;5805;51.542;7.230;2023-04-25T09:22:36;17.20;56.10
11497;DHT22;5805;51.542;7.230;2023-04-25T09:25:03;17.10;57.80
11497;DHT22;5805;51.542;7.230;2023-04-25T09:27:29;16.80;58.60
11497;DHT22;5805;51.542;7.230;2023-04-25T09:29:57;16.40;59.30
11497;DHT22;5805;51.542;7.230;2023-04-25T09:32:24;16.10;60.70
11497;DHT22;5805;51.542;7.230;2023-04-25T09:34:51;16.00;63.10
11497;DHT22;5805;51.542;7.230;2023-04-25T09:37:19;16.20;63.70
11497;DHT22;5805;51.542;7.230;2023-04-25T09:39:45;16.40;62.60
11497;DHT22;5805;51.542;7.230;2023-04-25T09:42:11;16.60;62.10
11497;DHT22;5805;51.542;7.230;2023-04-25T09:44:37;16.90;61.80
11497;DHT22;5805;51.542;7.230;2023-04-25T09:47:09;17.10;56.10
11497;DHT22;5805;51.542;7.230;2023-04-25T09:49:39;17.30;54.70
11497;DHT22;5805;51.542;7.230;2023-04-25T09:52:05;17.40;54.50
11497;DHT22;5805;51.542;7.230;2023-04-25T09:54:32;17.30;51.90
11497;DHT22;5805;51.542;7.230;2023-04-25T09:57:00;17.10;52.50
11497;DHT22;5805;51.542;7.230;2023-04-25T09:59:30;16.80;52.10
11497;DHT22;5805;51.542;7.230;2023-04-25T10:01:57;16.60;51.40
11497;DHT22;5805;51.542;7.230;2023-04-25T10:04:25;16.30;51.60
11497;DHT22;5805;51.542;7.230;2023-04-25T10:06:54;15.90;52.70
11497;DHT22;5805;51.542;7.230;2023-04-25T10:09:21;15.90;53.30
11497;DHT22;5805;51.542;7.230;2023-04-25T10:11:52;16.10;54.00
11497;DHT22;5805;51.542;7.230;2023-04-25T10:14:18;16.30;54.10
11497;DHT22;5805;51.542;7.230;2023-04-25T10:16:45;16.40;53.70
11497;DHT22;5805;51.542;7.230;2023-04-25T10:19:12;16.30;53.10
11497;DHT22;5805;51.542;7.230;2023-04-25T10:21:56;16.10;52.90
11497;DHT22;5805;51.542;7.230;2023-04-25T10:24:23;16.10;53.70
11497;DHT22;5805;51.542;7.230;2023-04-25T10:26:51;16.20;54.40
11497;DHT22;5805;51.542;7.230;2023-04-25T10:29:22;16.30;53.70
11497;DHT22;5805;51.542;7.230;2023-04-25T10:31:48;16.00;53.40
11497;DHT22;5805;51.542;7.230;2023-04-25T10:34:15;15.70;52.90
11497;DHT22;5805;51.542;7.230;2023-04-25T10:36:41;15.50;53.60
11497;DHT22;5805;51.542;7.230;2023-04-25T10:39:07;15.30;53.90
11497;DHT22;5805;51.542;7.230;2023-04-25T10:41:45;15.20;53.90
11497;DHT22;5805;51.542;7.230;2023-04-25T10:44:14;15.00;54.50
11497;DHT22;5805;51.542;7.230;2023-04-25T10:46:39;14.80;55.00
11497;DHT22;5805;51.542;7.230;2023-04-25T10:49:05;14.50;55.10
11497;DHT22;5805;51.542;7.230;2023-04-25T10:51:35;14.30;57.10
11497;DHT22;5805;51.542;7.230;2023-04-25T10:54:02;14.00;58.50
11497;DHT22;5805;51.542;7.230;2023-04-25T10:56:30;13.80;60.70
11497;DHT22;5805;51.542;7.230;2023-04-25T10:59:06;13.70;62.90
11497;DHT22;5805;51.542;7.230;2023-04-25T11:01:38;13.70;64.70
11497;DHT22;5805;51.542;7.230;2023-04-25T11:04:04;13.60;66.10
11497;DHT22;5805;51.542;7.230;2023-04-25T11:06:37;13.50;69.70
11497;DHT22;5805;51.542;7.230;2023-04-25T11:09:10;13.30;75.00
11497;DHT22;5805;51.542;7.230;2023-04-25T11:11:37;13.20;84.00
11497;DHT22;5805;51.542;7.230;2023-04-25T11:14:02;13.10;89.60
11497;DHT22;5805;51.542;7.230;2023-04-25T11:16:28;12.90;93.70
11497;DHT22;5805;51.542;7.230;2023-04-25T11:18:57;12.80;94.30
11497;DHT22;5805;51.542;7.230;2023-04-25T11:21:22;12.90;94.80
11497;DHT22;5805;51.542;7.230;2023-04-25T11:23:48;13.10;94.40
11497;DHT22;5805;51.542;7.230;2023-04-25T11:26:14;13.50;93.50
11497;DHT22;5805;51.542;7.230;2023-04-25T11:28:40;13.80;92.40
11497;DHT22;5805;51.542;7.230;2023-04-25T11:31:06;14.10;92.40
11497;DHT22;5805;51.542;7.230;2023-04-25T11:33:31;14.40;90.30
11497;DHT22;5805;51.542;7.230;2023-04-25T11:35:59;14.60;85.20
11497;DHT22;5805;51.542;7.230;2023-04-25T11:38:25;14.80;82.60
11497;DHT22;5805;51.542;7.230;2023-04-25T11:40:51;14.90;76.60
11497;DHT22;5805;51.542;7.230;2023-04-25T11:43:18;15.10;72.30
11497;DHT22;5805;51.542;7.230;2023-04-25T11:45:46;15.20;70.10
11497;DHT22;5805;51.542;7.230;2023-04-25T11:48:12;15.10;68.60
11497;DHT22;5805;51.542;7.230;2023-04-25T11:50:39;15.00;67.50
11497;DHT22;5805;51.542;7.230;2023-04-25T11:53:06;15.00;66.40
11497;DHT22;5805;51.542;7.230;2023-04-25T11:55:32;14.90;63.10
11497;DHT22;5805;51.542;7.230;2023-04-25T11:57:59;14.90;63.30
11497;DHT22;5805;51.542;7.230;2023-04-25T12:00:26;14.80;61.10
11497;DHT22;5805;51.542;7.230;2023-04-25T12:02:53;14.70;59.60
11497;DHT22;5805;51.542;7.230;2023-04-25T12:05:19;14.60;58.80
11497;DHT22;5805;51.542;7.230;2023-04-25T12:07:45;14.50;59.40
11497;DHT22;5805;51.542;7.230;2023-04-25T12:10:14;14.60;58.70
11497;DHT22;5805;51.542;7.230;2023-04-25T12:12:42;14.60;58.20
11497;DHT22;5805;51.542;7.230;2023-04-25T12:15:12;14.60;58.00
11497;DHT22;5805;51.542;7.230;2023-04-25T12:17:38;14.60;57.10
11497;DHT22;5805;51.542;7.230;2023-04-25T12:20:09;14.60;58.60
11497;DHT22;5805;51.542;7.230;2023-04-25T12:22:35;14.70;58.80
11497;DHT22;5805;51.542;7.230;2023-04-25T12:25:01;14.80;57.50
11497;DHT22;5805;51.542;7.230;2023-04-25T12:27:28;15.00;57.90
11497;DHT22;5805;51.542;7.230;2023-04-25T12:29:54;15.40;56.50
11497;DHT22;5805;51.542;7.230;2023-04-25T12:32:20;15.60;55.10
11497;DHT22;5805;51.542;7.230;2023-04-25T12:34:46;15.80;55.20
11497;DHT22;5805;51.542;7.230;2023-04-25T12:37:12;15.90;54.30
11497;DHT22;5805;51.542;7.230;2023-04-25T12:39:38;16.10;54.70
11497;DHT22;5805;51.542;7.230;2023-04-25T12:42:04;16.20;54.20
11497;DHT22;5805;51.542;7.230;2023-04-25T12:44:31;16.00;53.80
11497;DHT22;5805;51.542;7.230;2023-04-25T12:46:56;15.90;52.90
11497;DHT22;5805;51.542;7.230;2023-04-25T12:49:22;15.80;53.30
11497;DHT22;5805;51.542;7.230;2023-04-25T12:51:48;15.70;53.50
11497;DHT22;5805;51.542;7.230;2023-04-25T12:54:13;15.60;53.00
11497;DHT22;5805;51.542;7.230;2023-04-25T12:56:40;15.40;53.50
11497;DHT22;5805;51.542;7.230;2023-04-25T12:59:06;15.40;53.60
11497;DHT22;5805;51.542;7.230;2023-04-25T13:01:33;15.20;53.30
11497;DHT22;5805;51.542;7.230;2023-04-25T13:03:59;15.20;53.40
11497;DHT22;5805;51.542;7.230;2023-04-25T13:06:24;15.20;52.80
11497;DHT22;5805;51.542;7.230;2023-04-25T13:08:50;15.30;53.10
11497;DHT22;5805;51.542;7.230;2023-04-25T13:11:16;15.30;53.00
11497;DHT22;5805;51.542;7.230;2023-04-25T13:13:42;15.10;52.90
11497;DHT22;5805;51.542;7.230;2023-04-25T13:16:08;14.90;53.70
11497;DHT22;5805;51.542;7.230;2023-04-25T13:18:35;14.80;54.50
11497;DHT22;5805;51.542;7.230;2023-04-25T13:21:01;14.50;54.00
11497;DHT22;5805;51.542;7.230;2023-04-25T13:23:28;14.40;55.00
11497;DHT22;5805;51.542;7.230;2023-04-25T13:25:55;14.30;55.90
11497;DHT22;5805;51.542;7.230;2023-04-25T13:28:21;14.30;55.70
11497;DHT22;5805;51.542;7.230;2023-04-25T13:30:47;14.30;56.20
11497;DHT22;5805;51.542;7.230;2023-04-25T13:33:12;14.20;56.70
11497;DHT22;5805;51.542;7.230;2023-04-25T13:35:40;14.10;57.10
11497;DHT22;5805;51.542;7.230;2023-04-25T13:38:06;14.10;58.10
11497;DHT22;5805;51.542;7.230;2023-04-25T13:40:31;14.10;58.90
11497;DHT22;5805;51.542;7.230;2023-04-25T13:42:57;14.10;59.40
11497;DHT22;5805;51.542;7.230;2023-04-25T13:45:23;14.20;58.70
11497;DHT22;5805;51.542;7.230;2023-04-25T13:47:49;14.40;58.70
11497;DHT22;5805;51.542;7.230;2023-04-25T13:50:15;14.50;58.30
11497;DHT22;5805;51.542;7.230;2023-04-25T13:52:42;14.60;58.00
11497;DHT22;5805;51.542;7.230;2023-04-25T13:55:08;14.60;58.30
11497;DHT22;5805;51.542;7.230;2023-04-25T13:57:34;14.50;57.90
11497;DHT22;5805;51.542;7.230;2023-04-25T13:59:59;14.50;58.40
11497;DHT22;5805;51.542;7.230;2023-04-25T14:02:25;14.70;59.40
11497;DHT22;5805;51.542;7.230;2023-04-25T14:04:51;15.00;59.40
11497;DHT22;5805;51.542;7.230;2023-04-25T14:07:18;15.30;58.60
11497;DHT22;5805;51.542;7.230;2023-04-25T14:09:45;15.60;59.20
11497;DHT22;5805;51.542;7.230;2023-04-25T14:12:10;15.90;56.60
11497;DHT22;5805;51.542;7.230;2023-04-25T14:14:36;16.00;55.60
11497;DHT22;5805;51.542;7.230;2023-04-25T14:17:02;16.00;56.10
11497;DHT22;5805;51.542;7.230;2023-04-25T14:19:29;15.90;53.70
11497;DHT22;5805;51.542;7.230;2023-04-25T14:21:55;15.70;52.40
11497;DHT22;5805;51.542;7.230;2023-04-25T14:24:22;15.30;52.50
11497;DHT22;5805;51.542;7.230;2023-04-25T14:26:49;15.00;53.00
11497;DHT22;5805;51.542;7.230;2023-04-25T14:29:15;14.90;54.30
11497;DHT22;5805;51.542;7.230;2023-04-25T14:31:40;15.00;55.30
11497;DHT22;5805;51.542;7.230;2023-04-25T14:34:07;15.10;54.90
11497;DHT22;5805;51.542;7.230;2023-04-25T14:36:32;15.10;54.80
11497;DHT22;5805;51.542;7.230;2023-04-25T14:38:58;15.00;54.90
11497;DHT22;5805;51.542;7.230;2023-04-25T14:41:25;14.90;54.10
11497;DHT22;5805;51.542;7.230;2023-04-25T14:43:52;14.80;54.40
11497;DHT22;5805;51.542;7.230;2023-04-25T14:46:18;14.80;54.90
11497;DHT22;5805;51.542;7.230;2023-04-25T14:48:44;14.90;54.20
11497;DHT22;5805;51.542;7.230;2023-04-25T14:51:10;14.90;53.40
11497;DHT22;5805;51.542;7.230;2023-04-25T14:53:36;14.90;53.10
11497;DHT22;5805;51.542;7.230;2023-04-25T14:56:02;14.70;52.80
11497;DHT22;5805;51.542;7.230;2023-04-25T14:58:28;14.50;52.90
11497;DHT22;5805;51.542;7.230;2023-04-25T15:00:55;14.40;53.40
11497;DHT22;5805;51.542;7.230;2023-04-25T15:03:20;14.20;54.00
11497;DHT22;5805;51.542;7.230;2023-04-25T15:05:47;14.10;55.20
11497;DHT22;5805;51.542;7.230;2023-04-25T15:08:12;14.10;55.60
11497;DHT22;5805;51.542;7.230;2023-04-25T15:10:38;14.00;57.00
11497;DHT22;5805;51.542;7.230;2023-04-25T15:13:04;13.90;58.30
11497;DHT22;5805;51.542;7.230;2023-04-25T15:15:30;13.80;59.80
11497;DHT22;5805;51.542;7.230;2023-04-25T15:17:57;13.90;60.80
11497;DHT22;5805;51.542;7.230;2023-04-25T15:20:23;13.90;62.10
11497;DHT22;5805;51.542;7.230;2023-04-25T15:22:49;14.00;62.10
11497;DHT22;5805;51.542;7.230;2023-04-25T15:25:15;14.10;62.10
11497;DHT22;5805;51.542;7.230;2023-04-25T15:27:41;14.20;63.00
11497;DHT22;5805;51.542;7.230;2023-04-25T15:30:08;14.40;62.90
11497;DHT22;5805;51.542;7.230;2023-04-25T15:32:34;14.50;62.30
11497;DHT22;5805;51.542;7.230;2023-04-25T15:35:04;14.60;62.10
11497;DHT22;5805;51.542;7.230;2023-04-25T15:37:30;14.70;60.20
11497;DHT22;5805;51.542;7.230;2023-04-25T15:40:01;14.90;59.60
11497;DHT22;5805;51.542;7.230;2023-04-25T15:42:27;14.90;57.80
11497;DHT22;5805;51.542;7.230;2023-04-25T15:44:53;14.80;56.50